sensor_id;sensor_type;location;lat;lon;timestamp;pressure;altitude;pressure_sealevel;temperature;humidity
30081;BME280;16902;50.816;12.828;2023-08-30T00:02:28;97058.38;;;12.27;100.00
30081;BME280;16902;50.816;12.828;2023-08-30T00:07:31;97058.75;;;12.37;100.00
30081;BME280;16902;50.816;12.828;2023-08-30T00:12:33;97058.97;;;12.35;100.00
30081;BME280;16902;50.816;12.828;2023-08-30T00:17:35;97073.41;;;12.38;100.00
30081;BME280;16902;50.816;12.828;2023-08-30T00:22:36;97071.84;;;12.30;100.00
30081;BME280;16902;50.816;12.828;2023-08-30T00:27:38;97069.22;;;12.30;100.00
30081;BME280;16902;50.816;12.828;2023-08-30T00:32:40;97079.47;;;12.25;100.00
30081;BME280;16902;50.816;12.828;2023-08-30T00:37:42;97083.69;;;12.26;100.00
30081;BME280;16902;50.816;12.828;2023-08-30T00:42:43;97080.69;;;12.23;100.00
30081;BME280;16902;50.816;12.828;2023-08-30T00:47:45;97081.16;;;12.06;100.00
30081;BME280;16902;50.816;12.828;2023-08-30T00:52:47;97086.38;;;12.06;100.00
30081;BME280;16902;50.816;12.828;2023-08-30T00:57:50;97081.19;;;11.93;100.00
30081;BME280;16902;50.816;12.828;2023-08-30T01:02:52;97067.16;;;11.88;100.00
30081;BME280;16902;50.816;12.828;2023-08-30T01:07:54;97067.38;;;11.86;100.00
30081;BME280;16902;50.816;12.828;2023-08-30T01:13:03;97062.38;;;11.85;100.00
30081;BME280;16902;50.816;12.828;2023-08-30T01:18:08;97055.94;;;11.67;100.00
30081;BME280;16902;50.816;12.828;2023-08-30T01:28:43;97049.28;;;11.78;100.00
30081;BME280;16902;50.816;12.828;2023-08-30T01:33:46;97051.09;;;11.84;100.00
30081;BME280;16902;50.816;12.828;2023-08-30T01:38:50;97055.31;;;11.78;100.00
30081;BME280;16902;50.816;12.828;2023-08-30T01:43:53;97053.72;;;11.84;100.00
30081;BME280;16902;50.816;12.828;2023-08-30T01:48:57;97054.72;;;11.83;100.00
30081;BME280;16902;50.816;12.828;2023-08-30T01:54:02;97044.69;;;11.87;100.00
30081;BME280;16902;50.816;12.828;2023-08-30T01:59:05;97049.09;;;11.86;100.00
30081;BME280;16902;50.816;12.828;2023-08-30T02:04:06;97049.06;;;11.79;100.00
30081;BME280;16902;50.816;12.828;2023-08-30T02:09:16;97050.72;;;11.87;100.00
30081;BME280;16902;50.816;12.828;2023-08-30T02:14:20;97048.91;;;11.81;100.00
30081;BME280;16902;50.816;12.828;2023-08-30T02:19:22;97045.69;;;11.79;100.00
30081;BME280;16902;50.816;12.828;2023-08-30T02:24:24;97037.47;;;11.82;100.00
30081;BME280;16902;50.816;12.828;2023-08-30T02:29:26;97041.50;;;11.71;100.00
30081;BME280;16902;50.816;12.828;2023-08-30T02:34:28;97042.47;;;11.77;100.00
30081;BME280;16902;50.816;12.828;2023-08-30T02:39:29;97042.47;;;11.83;100.00
30081;BME280;16902;50.816;12.828;2023-08-30T02:44:31;97038.66;;;11.93;100.00
30081;BME280;16902;50.816;12.828;2023-08-30T02:49:33;97047.69;;;11.90;100.00
30081;BME280;16902;50.816;12.828;2023-08-30T02:54:35;97037.28;;;11.90;100.00
30081;BME280;16902;50.816;12.828;2023-08-30T02:59:36;97031.63;;;11.93;100.00
30081;BME280;16902;50.816;12.828;2023-08-30T03:04:40;97032.41;;;11.94;100.00
30081;BME280;16902;50.816;12.828;2023-08-30T03:09:44;97032.41;;;12.00;100.00
30081;BME280;16902;50.816;12.828;2023-08-30T03:14:47;97037.81;;;12.05;100.00
30081;BME280;16902;50.816;12.828;2023-08-30T03:19:51;97028.75;;;12.08;100.00
30081;BME280;16902;50.816;12.828;2023-08-30T03:24:54;97030.56;;;12.07;100.00
30081;BME280;16902;50.816;12.828;2023-08-30T03:29:56;97040.63;;;12.04;100.00
30081;BME280;16902;50.816;12.828;2023-08-30T03:34:58;97049.25;;;11.98;100.00
30081;BME280;16902;50.816;12.828;2023-08-30T03:39:59;97041.06;;;11.94;100.00
30081;BME280;16902;50.816;12.828;2023-08-30T03:45:01;97044.66;;;11.93;100.00
30081;BME280;16902;50.816;12.828;2023-08-30T03:50:05;97057.13;;;11.91;100.00
30081;BME280;16902;50.816;12.828;2023-08-30T03:55:08;97053.06;;;12.02;100.00
30081;BME280;16902;50.816;12.828;2023-08-30T04:00:10;97055.50;;;11.97;100.00
30081;BME280;16902;50.816;12.828;2023-08-30T04:05:15;97059.09;;;12.02;100.00
30081;BME280;16902;50.816;12.828;2023-08-30T04:10:17;97049.66;;;12.01;100.00
30081;BME280;16902;50.816;12.828;2023-08-30T04:15:19;97046.03;;;12.09;100.00
30081;BME280;16902;50.816;12.828;2023-08-30T04:20:21;97052.25;;;12.08;100.00
30081;BME280;16902;50.816;12.828;2023-08-30T04:25:23;97055.28;;;12.05;100.00
30081;BME280;16902;50.816;12.828;2023-08-30T04:30:26;97054.47;;;12.04;100.00
30081;BME280;16902;50.816;12.828;2023-08-30T04:35:29;97051.44;;;12.07;100.00
30081;BME280;16902;50.816;12.828;2023-08-30T04:40:31;97054.44;;;12.11;100.00
30081;BME280;16902;50.816;12.828;2023-08-30T04:45:35;97063.47;;;12.15;100.00
30081;BME280;16902;50.816;12.828;2023-08-30T04:50:39;97061.66;;;12.16;100.00
30081;BME280;16902;50.816;12.828;2023-08-30T04:55:41;97066.25;;;12.20;100.00
30081;BME280;16902;50.816;12.828;2023-08-30T05:00:43;97056.63;;;12.21;100.00
30081;BME280;16902;50.816;12.828;2023-08-30T05:05:45;97061.78;;;12.27;100.00
30081;BME280;16902;50.816;12.828;2023-08-30T05:10:49;97058.78;;;12.30;100.00
30081;BME280;16902;50.816;12.828;2023-08-30T05:15:51;97068.59;;;12.35;100.00
30081;BME280;16902;50.816;12.828;2023-08-30T05:20:53;97065.19;;;12.34;100.00
30081;BME280;16902;50.816;12.828;2023-08-30T05:25:55;97073.03;;;12.34;100.00
30081;BME280;16902;50.816;12.828;2023-08-30T05:30:57;97072.59;;;12.44;100.00
30081;BME280;16902;50.816;12.828;2023-08-30T05:36:19;97063.91;;;12.50;100.00
30081;BME280;16902;50.816;12.828;2023-08-30T05:41:32;97064.69;;;12.57;100.00
30081;BME280;16902;50.816;12.828;2023-08-30T05:46:34;97062.59;;;12.66;100.00
30081;BME280;16902;50.816;12.828;2023-08-30T05:51:36;97068.16;;;12.76;100.00
30081;BME280;16902;50.816;12.828;2023-08-30T05:56:37;97071.56;;;12.83;100.00
30081;BME280;16902;50.816;12.828;2023-08-30T06:01:39;97064.91;;;12.88;100.00
30081;BME280;16902;50.816;12.828;2023-08-30T06:06:41;97062.84;;;12.96;100.00
30081;BME280;16902;50.816;12.828;2023-08-30T06:11:43;97070.41;;;13.04;100.00
30081;BME280;16902;50.816;12.828;2023-08-30T06:16:45;97069.41;;;13.05;100.00
30081;BME280;16902;50.816;12.828;2023-08-30T06:21:47;97066.91;;;13.17;100.00
30081;BME280;16902;50.816;12.828;2023-08-30T06:26:49;97060.06;;;13.23;100.00
30081;BME280;16902;50.816;12.828;2023-08-30T06:31:51;97057.03;;;13.26;100.00
30081;BME280;16902;50.816;12.828;2023-08-30T06:36:52;97062.59;;;13.29;100.00
30081;BME280;16902;50.816;12.828;2023-08-30T06:41:54;97057.44;;;13.23;100.00
30081;BME280;16902;50.816;12.828;2023-08-30T06:47:00;97063.47;;;13.23;100.00
30081;BME280;16902;50.816;12.828;2023-08-30T06:52:03;97066.34;;;13.40;100.00
30081;BME280;16902;50.816;12.828;2023-08-30T06:57:06;97058.97;;;13.55;100.00
30081;BME280;16902;50.816;12.828;2023-08-30T07:02:08;97060.19;;;13.53;100.00
30081;BME280;16902;50.816;12.828;2023-08-30T07:07:12;97076.91;;;13.52;100.00
30081;BME280;16902;50.816;12.828;2023-08-30T07:12:14;97066.75;;;13.62;100.00
30081;BME280;16902;50.816;12.828;2023-08-30T07:17:16;97054.63;;;13.86;100.00
30081;BME280;16902;50.816;12.828;2023-08-30T07:22:18;97069.53;;;13.85;100.00
30081;BME280;16902;50.816;12.828;2023-08-30T07:27:20;97061.69;;;13.85;100.00
30081;BME280;16902;50.816;12.828;2023-08-30T07:32:22;97065.47;;;13.89;100.00
30081;BME280;16902;50.816;12.828;2023-08-30T07:37:25;97066.47;;;14.07;100.00
30081;BME280;16902;50.816;12.828;2023-08-30T07:42:27;97060.97;;;14.15;100.00
30081;BME280;16902;50.816;12.828;2023-08-30T07:47:29;97068.38;;;14.18;100.00
30081;BME280;16902;50.816;12.828;2023-08-30T07:52:31;97064.22;;;14.29;100.00
30081;BME280;16902;50.816;12.828;2023-08-30T07:57:46;97067.34;;;14.37;100.00
30081;BME280;16902;50.816;12.828;2023-08-30T08:02:48;97063.97;;;14.67;100.00
30081;BME280;16902;50.816;12.828;2023-08-30T08:07:52;97056.69;;;15.23;100.00
30081;BME280;16902;50.816;12.828;2023-08-30T08:12:54;97050.13;;;15.67;100.00
30081;BME280;16902;50.816;12.828;2023-08-30T08:17:57;97061.63;;;16.01;100.00
30081;BME280;16902;50.816;12.828;2023-08-30T08:22:59;97052.41;;;16.27;100.00
30081;BME280;16902;50.816;12.828;2023-08-30T08:28:02;97048.56;;;16.47;100.00
30081;BME280;16902;50.816;12.828;2023-08-30T08:33:05;97053.56;;;16.60;100.00
30081;BME280;16902;50.816;12.828;2023-08-30T08:38:07;97058.88;;;16.77;100.00
30081;BME280;16902;50.816;12.828;2023-08-30T08:43:10;97056.41;;;16.87;100.00
30081;BME280;16902;50.816;12.828;2023-08-30T08:48:14;97054.22;;;17.29;100.00
30081;BME280;16902;50.816;12.828;2023-08-30T08:53:16;97056.06;;;18.01;100.00
30081;BME280;16902;50.816;12.828;2023-08-30T08:58:18;97038.94;;;18.69;100.00
30081;BME280;16902;50.816;12.828;2023-08-30T09:03:21;97037.91;;;19.03;100.00
30081;BME280;16902;50.816;12.828;2023-08-30T09:08:24;97041.59;;;19.02;100.00
30081;BME280;16902;50.816;12.828;2023-08-30T09:13:26;97034.75;;;19.00;100.00
30081;BME280;16902;50.816;12.828;2023-08-30T09:18:28;97037.88;;;18.97;100.00
30081;BME280;16902;50.816;12.828;2023-08-30T09:23:30;97045.59;;;19.09;100.00
30081;BME280;16902;50.816;12.828;2023-08-30T09:28:41;97033.13;;;19.64;100.00
30081;BME280;16902;50.816;12.828;2023-08-30T09:33:45;97040.22;;;18.67;100.00
30081;BME280;16902;50.816;12.828;2023-08-30T09:38:50;97037.13;;;18.48;100.00
30081;BME280;16902;50.816;12.828;2023-08-30T09:43:52;97044.53;;;19.42;100.00
30081;BME280;16902;50.816;12.828;2023-08-30T09:49:13;97029.03;;;19.93;100.00
30081;BME280;16902;50.816;12.828;2023-08-30T09:54:19;97040.84;;;19.43;100.00
30081;BME280;16902;50.816;12.828;2023-08-30T09:59:24;97035.91;;;19.94;100.00
30081;BME280;16902;50.816;12.828;2023-08-30T10:04:27;97032.25;;;20.06;100.00
30081;BME280;16902;50.816;12.828;2023-08-30T10:09:30;97036.81;;;18.98;100.00
30081;BME280;16902;50.816;12.828;2023-08-30T10:14:32;97028.78;;;19.15;100.00
30081;BME280;16902;50.816;12.828;2023-08-30T10:19:34;97024.41;;;19.63;100.00
30081;BME280;16902;50.816;12.828;2023-08-30T10:24:46;97036.88;;;20.36;100.00
30081;BME280;16902;50.816;12.828;2023-08-30T10:30:09;97027.09;;;20.41;100.00
30081;BME280;16902;50.816;12.828;2023-08-30T10:35:14;97036.56;;;19.32;100.00
30081;BME280;16902;50.816;12.828;2023-08-30T10:40:16;97029.78;;;18.55;100.00
30081;BME280;16902;50.816;12.828;2023-08-30T10:45:23;97028.69;;;18.51;100.00
30081;BME280;16902;50.816;12.828;2023-08-30T10:50:30;97029.44;;;19.70;100.00
30081;BME280;16902;50.816;12.828;2023-08-30T10:55:33;97047.31;;;20.83;100.00
30081;BME280;16902;50.816;12.828;2023-08-30T11:00:34;97046.78;;;20.91;100.00
30081;BME280;16902;50.816;12.828;2023-08-30T11:05:40;97050.00;;;21.24;100.00
30081;BME280;16902;50.816;12.828;2023-08-30T11:10:42;97038.16;;;22.22;100.00
30081;BME280;16902;50.816;12.828;2023-08-30T11:15:44;97032.00;;;23.78;62.57
30081;BME280;16902;50.816;12.828;2023-08-30T11:20:46;97034.56;;;25.58;52.60
30081;BME280;16902;50.816;12.828;2023-08-30T11:25:51;97024.50;;;27.10;42.30
30081;BME280;16902;50.816;12.828;2023-08-30T11:30:54;97014.66;;;27.51;48.31
30081;BME280;16902;50.816;12.828;2023-08-30T11:35:56;97023.06;;;27.35;49.12
30081;BME280;16902;50.816;12.828;2023-08-30T11:41:00;97017.88;;;22.91;76.38
30081;BME280;16902;50.816;12.828;2023-08-30T11:46:03;96994.59;;;20.41;100.00
30081;BME280;16902;50.816;12.828;2023-08-30T11:51:06;96991.59;;;19.59;100.00
30081;BME280;16902;50.816;12.828;2023-08-30T11:56:08;96992.00;;;21.48;100.00
30081;BME280;16902;50.816;12.828;2023-08-30T12:01:11;96991.69;;;24.76;58.31
30081;BME280;16902;50.816;12.828;2023-08-30T12:06:13;96996.13;;;27.54;60.01
30081;BME280;16902;50.816;12.828;2023-08-30T12:11:19;96995.31;;;29.03;45.42
30081;BME280;16902;50.816;12.828;2023-08-30T12:16:22;96989.47;;;29.18;43.04
30081;BME280;16902;50.816;12.828;2023-08-30T12:21:24;96981.84;;;28.07;41.81
30081;BME280;16902;50.816;12.828;2023-08-30T12:26:31;96973.84;;;25.69;48.78
30081;BME280;16902;50.816;12.828;2023-08-30T12:31:34;96973.31;;;24.74;50.11
30081;BME280;16902;50.816;12.828;2023-08-30T12:36:36;96967.69;;;24.00;50.05
30081;BME280;16902;50.816;12.828;2023-08-30T12:41:38;96959.19;;;23.26;65.72
30081;BME280;16902;50.816;12.828;2023-08-30T12:46:43;96967.31;;;26.53;57.94
30081;BME280;16902;50.816;12.828;2023-08-30T12:51:46;96969.50;;;26.01;44.33
30081;BME280;16902;50.816;12.828;2023-08-30T12:56:47;96961.25;;;23.29;49.96
30081;BME280;16902;50.816;12.828;2023-08-30T13:01:49;96965.66;;;21.82;57.61
30081;BME280;16902;50.816;12.828;2023-08-30T13:06:51;96957.81;;;20.34;85.53
30081;BME280;16902;50.816;12.828;2023-08-30T13:11:53;96958.69;;;19.30;100.00
30081;BME280;16902;50.816;12.828;2023-08-30T13:16:55;96957.97;;;19.02;100.00
30081;BME280;16902;50.816;12.828;2023-08-30T13:21:57;96956.75;;;18.78;100.00
30081;BME280;16902;50.816;12.828;2023-08-30T13:26:59;96955.63;;;18.46;100.00
30081;BME280;16902;50.816;12.828;2023-08-30T13:32:01;96949.06;;;18.22;100.00
30081;BME280;16902;50.816;12.828;2023-08-30T13:37:03;96953.00;;;18.46;100.00
30081;BME280;16902;50.816;12.828;2023-08-30T13:42:06;96945.44;;;18.55;100.00
30081;BME280;16902;50.816;12.828;2023-08-30T13:47:07;96948.91;;;18.88;100.00
30081;BME280;16902;50.816;12.828;2023-08-30T13:52:09;96948.53;;;19.11;100.00
30081;BME280;16902;50.816;12.828;2023-08-30T13:57:11;96940.94;;;19.67;100.00
30081;BME280;16902;50.816;12.828;2023-08-30T14:02:13;96945.34;;;20.19;100.00
30081;BME280;16902;50.816;12.828;2023-08-30T14:07:15;96941.94;;;20.24;100.00
30081;BME280;16902;50.816;12.828;2023-08-30T14:12:17;96939.50;;;20.02;100.00
30081;BME280;16902;50.816;12.828;2023-08-30T14:17:19;96942.41;;;20.06;100.00
30081;BME280;16902;50.816;12.828;2023-08-30T14:22:23;96938.66;;;19.86;100.00
30081;BME280;16902;50.816;12.828;2023-08-30T14:27:26;96938.19;;;19.47;100.00
30081;BME280;16902;50.816;12.828;2023-08-30T14:32:28;96936.69;;;19.61;100.00
30081;BME280;16902;50.816;12.828;2023-08-30T14:37:30;96940.31;;;19.45;100.00
30081;BME280;16902;50.816;12.828;2023-08-30T14:42:32;96932.78;;;19.21;100.00
30081;BME280;16902;50.816;12.828;2023-08-30T14:47:35;96930.94;;;18.85;100.00
30081;BME280;16902;50.816;12.828;2023-08-30T14:52:37;96933.38;;;18.64;100.00
30081;BME280;16902;50.816;12.828;2023-08-30T14:57:39;96934.59;;;18.52;100.00
30081;BME280;16902;50.816;12.828;2023-08-30T15:02:41;96932.66;;;18.42;100.00
30081;BME280;16902;50.816;12.828;2023-08-30T15:07:43;96928.88;;;18.28;100.00
30081;BME280;16902;50.816;12.828;2023-08-30T15:12:45;96931.03;;;18.36;100.00
30081;BME280;16902;50.816;12.828;2023-08-30T15:17:47;96934.50;;;18.41;100.00
30081;BME280;16902;50.816;12.828;2023-08-30T15:22:51;96933.75;;;18.46;100.00
30081;BME280;16902;50.816;12.828;2023-08-30T15:27:53;96928.13;;;18.64;100.00
30081;BME280;16902;50.816;12.828;2023-08-30T15:32:54;96942.28;;;18.85;100.00
30081;BME280;16902;50.816;12.828;2023-08-30T15:37:57;96938.66;;;18.91;100.00
30081;BME280;16902;50.816;12.828;2023-08-30T15:43:00;96924.88;;;19.26;100.00
30081;BME280;16902;50.816;12.828;2023-08-30T15:48:02;96923.84;;;19.27;100.00
30081;BME280;16902;50.816;12.828;2023-08-30T15:53:04;96920.63;;;19.68;100.00
30081;BME280;16902;50.816;12.828;2023-08-30T15:58:05;96920.75;;;20.14;100.00
30081;BME280;16902;50.816;12.828;2023-08-30T16:03:10;96909.63;;;20.01;100.00
30081;BME280;16902;50.816;12.828;2023-08-30T16:08:12;96907.19;;;19.80;100.00
30081;BME280;16902;50.816;12.828;2023-08-30T16:13:14;96914.75;;;19.56;100.00
30081;BME280;16902;50.816;12.828;2023-08-30T16:18:16;96920.25;;;19.49;100.00
30081;BME280;16902;50.816;12.828;2023-08-30T16:23:19;96916.16;;;19.21;100.00
30081;BME280;16902;50.816;12.828;2023-08-30T16:28:20;96917.59;;;18.96;100.00
30081;BME280;16902;50.816;12.828;2023-08-30T16:33:22;96914.91;;;18.59;100.00
30081;BME280;16902;50.816;12.828;2023-08-30T16:38:25;96913.53;;;18.24;100.00
30081;BME280;16902;50.816;12.828;2023-08-30T16:43:27;96916.78;;;18.05;100.00
30081;BME280;16902;50.816;12.828;2023-08-30T16:48:29;96914.09;;;17.78;100.00
30081;BME280;16902;50.816;12.828;2023-08-30T16:53:32;96909.16;;;17.64;100.00
30081;BME280;16902;50.816;12.828;2023-08-30T16:58:35;96899.38;;;17.38;100.00
30081;BME280;16902;50.816;12.828;2023-08-30T17:03:38;96909.00;;;17.10;100.00
30081;BME280;16902;50.816;12.828;2023-08-30T17:08:40;96906.50;;;16.82;100.00
30081;BME280;16902;50.816;12.828;2023-08-30T17:13:42;96912.72;;;16.76;100.00
30081;BME280;16902;50.816;12.828;2023-08-30T17:18:44;96920.34;;;16.77;100.00
30081;BME280;16902;50.816;12.828;2023-08-30T17:23:46;96920.94;;;16.67;100.00
30081;BME280;16902;50.816;12.828;2023-08-30T17:28:48;96917.19;;;16.30;100.00
30081;BME280;16902;50.816;12.828;2023-08-30T17:33:50;96919.22;;;15.82;100.00
30081;BME280;16902;50.816;12.828;2023-08-30T17:38:52;96909.81;;;15.46;100.00
30081;BME280;16902;50.816;12.828;2023-08-30T17:43:54;96906.31;;;15.17;100.00
30081;BME280;16902;50.816;12.828;2023-08-30T17:48:56;96904.84;;;14.98;100.00
30081;BME280;16902;50.816;12.828;2023-08-30T17:53:58;96908.41;;;14.80;100.00
30081;BME280;16902;50.816;12.828;2023-08-30T17:58:59;96909.94;;;14.69;100.00
30081;BME280;16902;50.816;12.828;2023-08-30T18:04:02;96908.47;;;14.61;100.00
30081;BME280;16902;50.816;12.828;2023-08-30T18:09:06;96912.72;;;14.44;100.00
30081;BME280;16902;50.816;12.828;2023-08-30T18:14:16;96917.38;;;14.30;100.00
30081;BME280;16902;50.816;12.828;2023-08-30T18:19:18;96908.59;;;14.25;100.00
30081;BME280;16902;50.816;12.828;2023-08-30T18:24:20;96915.97;;;14.16;100.00
30081;BME280;16902;50.816;12.828;2023-08-30T18:29:23;96912.53;;;14.04;100.00
30081;BME280;16902;50.816;12.828;2023-08-30T18:34:27;96925.13;;;13.77;100.00
30081;BME280;16902;50.816;12.828;2023-08-30T18:39:29;96922.69;;;13.63;100.00
30081;BME280;16902;50.816;12.828;2023-08-30T18:44:32;96929.22;;;13.36;100.00
30081;BME280;16902;50.816;12.828;2023-08-30T18:49:34;96940.88;;;13.15;100.00
30081;BME280;16902;50.816;12.828;2023-08-30T18:54:36;96945.69;;;12.93;100.00
30081;BME280;16902;50.816;12.828;2023-08-30T18:59:45;96940.09;;;12.90;100.00
30081;BME280;16902;50.816;12.828;2023-08-30T19:04:47;96952.56;;;12.88;100.00
30081;BME280;16902;50.816;12.828;2023-08-30T19:09:49;96953.16;;;12.90;100.00
30081;BME280;16902;50.816;12.828;2023-08-30T19:14:51;96948.63;;;12.78;100.00
30081;BME280;16902;50.816;12.828;2023-08-30T19:19:53;96942.13;;;12.88;100.00
30081;BME280;16902;50.816;12.828;2023-08-30T19:24:55;96943.72;;;12.89;100.00
30081;BME280;16902;50.816;12.828;2023-08-30T19:29:57;96939.50;;;12.88;100.00
30081;BME280;16902;50.816;12.828;2023-08-30T19:34:58;96939.28;;;12.89;100.00
30081;BME280;16902;50.816;12.828;2023-08-30T19:40:00;96942.50;;;12.91;100.00
30081;BME280;16902;50.816;12.828;2023-08-30T19:45:06;96948.63;;;12.78;100.00
30081;BME280;16902;50.816;12.828;2023-08-30T19:50:09;96939.94;;;12.59;100.00
30081;BME280;16902;50.816;12.828;2023-08-30T19:55:11;96948.00;;;12.51;100.00
30081;BME280;16902;50.816;12.828;2023-08-30T20:00:13;96933.50;;;12.30;100.00
30081;BME280;16902;50.816;12.828;2023-08-30T20:05:15;96937.81;;;12.12;100.00
30081;BME280;16902;50.816;12.828;2023-08-30T20:10:17;96936.00;;;12.12;100.00
30081;BME280;16902;50.816;12.828;2023-08-30T20:15:19;96937.44;;;12.08;100.00
30081;BME280;16902;50.816;12.828;2023-08-30T20:20:22;96939.13;;;11.89;100.00
30081;BME280;16902;50.816;12.828;2023-08-30T20:25:24;96946.19;;;11.82;100.00
30081;BME280;16902;50.816;12.828;2023-08-30T20:30:26;96946.41;;;11.74;100.00
30081;BME280;16902;50.816;12.828;2023-08-30T20:35:28;96940.81;;;11.64;100.00
30081;BME280;16902;50.816;12.828;2023-08-30T20:40:30;96947.66;;;11.58;100.00
30081;BME280;16902;50.816;12.828;2023-08-30T20:45:32;96940.31;;;11.42;100.00
30081;BME280;16902;50.816;12.828;2023-08-30T20:50:35;96952.72;;;11.46;100.00
30081;BME280;16902;50.816;12.828;2023-08-30T20:55:41;96943.91;;;11.47;100.00
30081;BME280;16902;50.816;12.828;2023-08-30T21:00:43;96940.28;;;11.48;100.00
30081;BME280;16902;50.816;12.828;2023-08-30T21:05:45;96938.50;;;11.42;100.00
30081;BME280;16902;50.816;12.828;2023-08-30T21:10:48;96934.50;;;11.33;100.00
30081;BME280;16902;50.816;12.828;2023-08-30T21:15:49;96938.53;;;11.29;100.00
30081;BME280;16902;50.816;12.828;2023-08-30T21:20:58;96934.31;;;11.21;100.00
30081;BME280;16902;50.816;12.828;2023-08-30T21:26:00;96934.75;;;11.12;100.00
30081;BME280;16902;50.816;12.828;2023-08-30T21:31:02;96936.78;;;10.96;100.00
30081;BME280;16902;50.816;12.828;2023-08-30T21:36:05;96935.00;;;10.84;100.00
30081;BME280;16902;50.816;12.828;2023-08-30T21:41:07;96932.56;;;10.82;100.00
30081;BME280;16902;50.816;12.828;2023-08-30T21:46:09;96931.16;;;10.86;100.00
30081;BME280;16902;50.816;12.828;2023-08-30T21:51:11;96922.94;;;10.96;100.00
30081;BME280;16902;50.816;12.828;2023-08-30T21:56:13;96931.75;;;11.15;100.00
30081;BME280;16902;50.816;12.828;2023-08-30T22:01:14;96931.53;;;11.74;100.00
30081;BME280;16902;50.816;12.828;2023-08-30T22:06:16;96934.97;;;12.20;100.00
30081;BME280;16902;50.816;12.828;2023-08-30T22:11:18;96932.69;;;12.86;100.00
30081;BME280;16902;50.816;12.828;2023-08-30T22:16:20;96940.97;;;13.27;100.00
30081;BME280;16902;50.816;12.828;2023-08-30T22:21:23;96946.00;;;13.47;100.00
30081;BME280;16902;50.816;12.828;2023-08-30T22:26:27;96949.38;;;13.54;100.00
30081;BME280;16902;50.816;12.828;2023-08-30T22:31:29;96944.19;;;13.66;100.00
30081;BME280;16902;50.816;12.828;2023-08-30T22:36:31;96944.63;;;13.62;100.00
30081;BME280;16902;50.816;12.828;2023-08-30T22:41:33;96937.38;;;13.65;100.00
30081;BME280;16902;50.816;12.828;2023-08-30T22:46:35;96944.69;;;13.74;100.00
30081;BME280;16902;50.816;12.828;2023-08-30T22:51:38;96953.25;;;13.81;100.00
30081;BME280;16902;50.816;12.828;2023-08-30T22:56:54;96950.59;;;13.70;100.00
30081;BME280;16902;50.816;12.828;2023-08-30T23:01:57;96943.31;;;13.72;100.00
30081;BME280;16902;50.816;12.828;2023-08-30T23:06:59;96942.00;;;13.81;100.00
30081;BME280;16902;50.816;12.828;2023-08-30T23:12:01;96938.63;;;13.92;100.00
30081;BME280;16902;50.816;12.828;2023-08-30T23:17:03;96954.81;;;14.01;100.00
30081;BME280;16902;50.816;12.828;2023-08-30T23:22:05;96974.06;;;14.06;100.00
30081;BME280;16902;50.816;12.828;2023-08-30T23:27:07;96974.56;;;14.15;100.00
30081;BME280;16902;50.816;12.828;2023-08-30T23:32:09;96986.84;;;14.33;100.00
30081;BME280;16902;50.816;12.828;2023-08-30T23:37:11;96999.94;;;14.33;100.00
30081;BME280;16902;50.816;12.828;2023-08-30T23:42:13;97016.47;;;14.15;100.00
30081;BME280;16902;50.816;12.828;2023-08-30T23:47:15;96992.41;;;13.08;100.00
30081;BME280;16902;50.816;12.828;2023-08-30T23:52:17;96994.72;;;12.66;100.00
30081;BME280;16902;50.816;12.828;2023-08-30T23:57:19;97001.31;;;12.37;100.00
